Main page
METAR-TAF:

METAR-TAF

Airports :

Scotts Seaplane Base

Crane Lake, Minnesota, United States

latitude: 48-15-59N, longitude: 092-29-01W, elevation: 341 m

Current weather observation

The report was made 23 minutes ago, at 06:13 UTC
Wind 3 kt from the South
Temperature -2°C
Humidity 86%
Pressure 1013 hPa
Visibility: 16.1 km
Clear sky

METAR: KCDD 220613Z AUTO 17003KT 10SM CLR M02/M04 A2990 RMK AO2

Time: 01:36 (06:36 UTC)


TAF: missing

Weather observations and forecasts of more than 4000 airports (METAR and TAF reports).

The available stations are represented by yellow and red dots on the map.

Hover mouse over dot to see the name of the station.

Then click to see weather observations and forecasts.

To change the map : click on the green buttons with a black cross to zoom in, on the green button with a dash to zoom out, or on the green arrows for adjacent maps.


METAR-TAF: